createdAt,value
2022-12-11T00:01:18.977Z,7.63
2022-12-11T00:03:46.760Z,7.85
2022-12-11T00:07:31.798Z,7.40
2022-12-11T00:10:05.787Z,5.65
2022-12-11T00:12:52.405Z,7.00
2022-12-11T00:15:26.132Z,6.65
2022-12-11T00:17:52.965Z,6.57
2022-12-11T00:20:19.943Z,6.43
2022-12-11T00:22:46.709Z,8.05
2022-12-11T00:25:13.571Z,6.97
2022-12-11T00:27:40.361Z,7.38
2022-12-11T00:30:07.655Z,6.55
2022-12-11T00:32:37.561Z,6.43
2022-12-11T00:35:05.107Z,6.72
2022-12-11T00:37:32.086Z,7.28
2022-12-11T00:39:59.027Z,8.45
2022-12-11T00:42:25.960Z,8.35
2022-12-11T00:44:53.662Z,8.20
2022-12-11T00:47:20.474Z,7.32
2022-12-11T00:49:49.949Z,7.05
2022-12-11T00:52:18.306Z,7.13
2022-12-11T00:54:45.338Z,6.78
2022-12-11T00:57:12.329Z,7.05
2022-12-11T00:59:39.397Z,6.88
2022-12-11T01:02:06.133Z,7.18
2022-12-11T01:04:35.879Z,7.57
2022-12-11T01:07:02.738Z,7.07
2022-12-11T01:09:48.238Z,7.28
2022-12-11T01:12:14.982Z,6.47
2022-12-11T01:14:41.740Z,6.55
2022-12-11T01:17:08.592Z,7.00
2022-12-11T01:19:35.511Z,5.60
2022-12-11T01:22:02.264Z,5.95
2022-12-11T01:24:29.185Z,6.55
2022-12-11T01:26:56.049Z,6.85
2022-12-11T01:29:39.541Z,6.40
2022-12-11T01:32:13.232Z,6.18
2022-12-11T01:34:40.029Z,6.53
2022-12-11T01:37:06.938Z,6.43
2022-12-11T01:39:33.867Z,6.60
2022-12-11T01:42:01.327Z,6.45
2022-12-11T01:44:30.976Z,6.78
2022-12-11T01:46:58.527Z,6.95
2022-12-11T01:49:27.841Z,6.80
2022-12-11T01:52:03.095Z,6.82
2022-12-11T01:54:30.635Z,7.00
2022-12-11T01:57:01.429Z,7.65
2022-12-11T01:59:31.040Z,7.20
2022-12-11T02:02:09.510Z,6.75
2022-12-11T02:04:39.291Z,6.85
2022-12-11T02:07:06.439Z,6.85
2022-12-11T02:09:36.052Z,6.47
2022-12-11T02:12:25.645Z,6.38
2022-12-11T02:15:26.767Z,6.88
2022-12-11T02:18:19.923Z,8.70
2022-12-11T02:21:09.727Z,8.13
2022-12-11T02:24:21.340Z,9.13
2022-12-11T02:27:32.156Z,10.57
2022-12-11T02:30:02.773Z,11.02
2022-12-11T02:32:39.687Z,12.23
2022-12-11T02:35:24.897Z,12.15
2022-12-11T02:37:57.930Z,11.20
2022-12-11T02:40:46.657Z,10.73
2022-12-11T02:43:21.885Z,8.48
2022-12-11T02:45:49.830Z,7.55
2022-12-11T02:48:17.850Z,7.70
2022-12-11T02:51:18.468Z,6.60
2022-12-11T02:53:46.674Z,5.80
2022-12-11T02:56:21.610Z,6.53
2022-12-11T02:58:58.358Z,6.95
2022-12-11T03:01:26.563Z,7.95
2022-12-11T03:03:54.391Z,9.48
2022-12-11T03:06:25.257Z,9.73
2022-12-11T03:08:52.084Z,8.23
2022-12-11T03:11:18.888Z,8.70
2022-12-11T03:13:45.827Z,7.57
2022-12-11T03:16:23.290Z,8.00
2022-12-11T03:19:26.988Z,7.78
2022-12-11T03:22:00.526Z,6.50
2022-12-11T03:24:39.370Z,6.10
2022-12-11T03:27:17.852Z,6.22
2022-12-11T03:30:05.239Z,7.05
2022-12-11T03:32:50.469Z,8.00
2022-12-11T03:35:29.738Z,11.07
2022-12-11T03:38:00.642Z,12.23
2022-12-11T03:40:30.953Z,11.95
2022-12-11T03:42:58.247Z,12.10
2022-12-11T03:45:29.106Z,9.95
2022-12-11T03:47:59.808Z,10.13
2022-12-11T03:50:30.736Z,10.25
2022-12-11T03:52:58.595Z,10.75
2022-12-11T03:55:39.813Z,8.77
2022-12-11T03:58:13.446Z,7.55
2022-12-11T04:00:40.748Z,8.35
2022-12-11T04:03:14.055Z,9.13
2022-12-11T04:05:48.624Z,8.03
2022-12-11T04:08:16.943Z,7.80
2022-12-11T04:10:44.079Z,8.00
2022-12-11T04:13:11.162Z,8.40
2022-12-11T04:15:39.247Z,12.32
2022-12-11T04:18:25.595Z,12.02
2022-12-11T04:21:14.963Z,11.80
2022-12-11T04:24:00.240Z,11.55
2022-12-11T04:26:27.284Z,10.45
2022-12-11T04:28:57.513Z,10.52
2022-12-11T04:31:24.497Z,8.55
2022-12-11T04:33:51.375Z,8.93
2022-12-11T04:36:18.256Z,8.40
2022-12-11T04:38:45.040Z,8.80
2022-12-11T04:41:14.045Z,8.05
2022-12-11T04:43:41.281Z,8.27
2022-12-11T04:46:14.806Z,7.82
2022-12-11T04:48:42.407Z,8.60
2022-12-11T04:51:10.015Z,7.88
2022-12-11T04:53:45.920Z,7.90
2022-12-11T04:56:15.527Z,8.30
2022-12-11T04:58:43.721Z,7.70
2022-12-11T05:01:19.736Z,9.68
2022-12-11T05:03:47.055Z,9.60
2022-12-11T05:06:14.392Z,8.85
2022-12-11T05:08:42.501Z,10.85
2022-12-11T05:11:14.913Z,10.27
2022-12-11T05:13:42.757Z,10.00
2022-12-11T05:16:11.743Z,9.07
2022-12-11T05:18:45.858Z,10.43
2022-12-11T05:21:14.445Z,12.07
2022-12-11T05:23:42.028Z,11.07
2022-12-11T05:26:13.429Z,10.65
2022-12-11T05:28:40.785Z,11.23
2022-12-11T05:31:14.842Z,11.10
2022-12-11T05:33:42.121Z,11.02
2022-12-11T05:36:09.905Z,11.88
2022-12-11T05:38:36.780Z,10.40
2022-12-11T05:41:06.096Z,11.27
2022-12-11T05:43:35.897Z,11.68
2022-12-11T05:46:14.216Z,12.13
2022-12-11T05:48:41.712Z,11.07
2022-12-11T05:51:10.850Z,10.52
2022-12-11T05:53:38.534Z,9.98
2022-12-11T05:56:20.413Z,10.45
2022-12-11T05:58:48.256Z,10.65
2022-12-11T06:01:27.189Z,11.52
2022-12-11T06:03:56.780Z,11.13
2022-12-11T06:06:24.729Z,11.60
2022-12-11T06:08:56.235Z,9.43
2022-12-11T06:11:24.524Z,9.20
2022-12-11T06:13:52.280Z,8.98
2022-12-11T06:16:19.572Z,9.57
2022-12-11T06:18:46.466Z,10.45
2022-12-11T06:21:15.985Z,9.32
2022-12-11T06:23:44.235Z,10.35
2022-12-11T06:26:11.932Z,13.23
2022-12-11T06:28:38.961Z,13.88
2022-12-11T06:31:06.214Z,12.18
2022-12-11T06:33:33.339Z,11.35
2022-12-11T06:36:04.517Z,10.88
2022-12-11T06:38:31.646Z,9.25
2022-12-11T06:41:00.308Z,11.23
2022-12-11T06:43:27.191Z,10.60
2022-12-11T06:45:55.915Z,11.05
2022-12-11T06:48:26.059Z,11.63
2022-12-11T06:50:52.925Z,11.48
2022-12-11T06:53:19.667Z,11.05
2022-12-11T06:55:46.408Z,11.65
2022-12-11T06:58:13.167Z,11.07
2022-12-11T07:00:40.032Z,10.60
2022-12-11T07:03:07.251Z,8.77
2022-12-11T07:05:34.457Z,10.80
2022-12-11T07:08:01.635Z,10.85
2022-12-11T07:10:28.495Z,9.70
2022-12-11T07:12:55.350Z,13.18
2022-12-11T07:15:22.182Z,12.48
2022-12-11T07:17:48.937Z,12.82
2022-12-11T07:20:15.811Z,12.13
2022-12-11T07:22:46.488Z,13.07
2022-12-11T07:25:14.179Z,12.13
2022-12-11T07:27:41.767Z,11.38
2022-12-11T07:30:09.463Z,10.70
2022-12-11T07:32:36.524Z,11.80
2022-12-11T07:35:04.100Z,12.02
2022-12-11T07:37:30.874Z,12.57
2022-12-11T07:39:57.612Z,11.85
2022-12-11T07:42:41.396Z,11.57
2022-12-11T07:45:13.192Z,11.63
2022-12-11T07:47:40.284Z,11.20
2022-12-11T07:50:07.277Z,11.68
2022-12-11T07:52:34.479Z,9.63
2022-12-11T07:55:01.403Z,10.18
2022-12-11T07:57:29.361Z,10.20
2022-12-11T07:59:56.283Z,9.32
2022-12-11T08:02:23.120Z,9.80
2022-12-11T08:04:50.323Z,8.40
2022-12-11T08:07:17.171Z,9.60
2022-12-11T08:09:44.024Z,8.73
2022-12-11T08:12:11.934Z,8.25
2022-12-11T08:14:38.704Z,7.15
2022-12-11T08:17:05.534Z,9.20
2022-12-11T08:19:32.302Z,9.45
2022-12-11T08:21:59.123Z,10.73
2022-12-11T08:24:25.942Z,10.32
2022-12-11T08:26:52.736Z,10.25
2022-12-11T08:29:19.566Z,9.82
2022-12-11T08:31:46.328Z,10.32
2022-12-11T08:34:14.156Z,8.50
2022-12-11T08:36:41.155Z,8.95
2022-12-11T08:39:08.143Z,9.80
2022-12-11T08:41:34.918Z,9.57
2022-12-11T08:44:01.783Z,9.30
2022-12-11T08:46:31.534Z,8.07
2022-12-11T08:49:05.324Z,8.30
2022-12-11T08:51:32.472Z,8.23
2022-12-11T08:54:01.042Z,7.75
2022-12-11T08:56:28.860Z,7.70
2022-12-11T08:58:56.351Z,7.50
2022-12-11T09:01:25.613Z,8.07
2022-12-11T09:03:54.469Z,7.95
2022-12-11T09:06:23.872Z,7.20
2022-12-11T09:08:53.398Z,8.25
2022-12-11T09:11:25.971Z,8.77
2022-12-11T09:13:53.547Z,6.80
2022-12-11T09:16:24.507Z,6.53
2022-12-11T09:18:53.567Z,7.40
2022-12-11T09:21:23.453Z,6.47
2022-12-11T09:23:54.617Z,6.95
2022-12-11T09:26:22.112Z,7.10
2022-12-11T09:28:53.027Z,6.40
2022-12-11T09:31:32.589Z,6.32
2022-12-11T09:34:02.395Z,5.90
2022-12-11T09:36:29.647Z,5.95
2022-12-11T09:39:06.352Z,8.57
2022-12-11T09:41:36.420Z,9.18
2022-12-11T09:44:41.276Z,9.00
2022-12-11T09:47:38.183Z,8.90
2022-12-11T09:50:11.469Z,10.10
2022-12-11T09:53:04.158Z,9.57
2022-12-11T09:55:55.157Z,9.52
2022-12-11T09:58:21.975Z,8.25
2022-12-11T10:00:57.029Z,8.73
2022-12-11T10:03:56.382Z,8.90
2022-12-11T10:06:31.059Z,7.90
2022-12-11T10:15:05.172Z,8.63
2022-12-11T10:17:34.129Z,9.70
2022-12-11T10:20:17.452Z,10.93
2022-12-11T10:22:45.381Z,10.18
2022-12-11T10:25:31.466Z,8.32
2022-12-11T10:27:58.257Z,7.50
2022-12-11T10:30:34.683Z,7.85
2022-12-11T10:33:22.523Z,8.05
2022-12-11T10:35:57.230Z,7.60
2022-12-11T10:38:32.537Z,7.78
2022-12-11T10:41:12.145Z,7.70
2022-12-11T10:43:43.658Z,7.03
2022-12-11T10:46:15.867Z,7.47
2022-12-11T10:48:47.120Z,7.38
2022-12-11T10:51:14.616Z,8.13
2022-12-11T10:53:43.564Z,8.88
2022-12-11T10:56:12.291Z,7.13
2022-12-11T10:58:49.601Z,7.45
2022-12-11T11:01:20.154Z,7.78
2022-12-11T11:04:03.544Z,7.82
2022-12-11T11:06:30.761Z,7.38
2022-12-11T11:08:59.655Z,6.30
2022-12-11T11:11:34.979Z,7.30
2022-12-11T11:14:17.201Z,7.53
2022-12-11T11:16:47.145Z,7.47
2022-12-11T11:19:36.643Z,7.53
2022-12-11T11:22:12.637Z,8.23
2022-12-11T11:24:42.511Z,7.30
2022-12-11T11:27:19.545Z,6.65
2022-12-11T11:29:51.551Z,6.03
2022-12-11T11:32:38.961Z,5.63
2022-12-11T11:35:12.152Z,6.35
2022-12-11T11:37:44.827Z,7.15
2022-12-11T11:40:33.239Z,7.00
2022-12-11T11:43:36.948Z,6.72
2022-12-11T11:46:25.480Z,6.60
2022-12-11T11:49:08.369Z,6.68
2022-12-11T11:51:45.772Z,7.65
2022-12-11T11:54:34.511Z,7.47
2022-12-11T11:57:20.713Z,7.32
2022-12-11T11:59:53.589Z,7.13
2022-12-11T12:02:20.806Z,7.38
2022-12-11T12:04:49.414Z,6.63
2022-12-11T12:07:29.541Z,7.07
2022-12-11T12:10:19.207Z,6.57
2022-12-11T12:13:30.136Z,5.88
2022-12-11T12:16:02.334Z,6.30
2022-12-11T12:18:52.378Z,5.40
2022-12-11T12:21:24.901Z,5.70
2022-12-11T12:24:14.364Z,5.68
2022-12-11T12:26:53.540Z,7.10
2022-12-11T12:29:51.280Z,5.88
2022-12-11T12:32:28.175Z,5.70
2022-12-11T12:35:19.999Z,5.60
2022-12-11T12:37:58.557Z,5.60
2022-12-11T12:40:30.617Z,4.40
2022-12-11T12:43:19.477Z,4.85
2022-12-11T12:45:55.519Z,5.05
2022-12-11T12:48:24.840Z,4.75
2022-12-11T12:50:52.761Z,4.00
2022-12-11T12:53:27.156Z,4.38
2022-12-11T12:55:54.633Z,4.15
2022-12-11T12:58:29.486Z,4.20
2022-12-11T13:01:15.701Z,3.85
2022-12-11T13:04:01.967Z,3.88
2022-12-11T13:06:36.790Z,3.40
2022-12-11T13:09:16.333Z,4.03
2022-12-11T13:11:43.712Z,4.25
2022-12-11T13:14:13.741Z,3.55
2022-12-11T13:16:45.901Z,4.30
2022-12-11T13:19:27.596Z,4.45
2022-12-11T13:22:06.353Z,4.13
2022-12-11T13:24:34.265Z,5.05
2022-12-11T13:27:22.079Z,4.47
2022-12-11T13:29:48.929Z,3.83
2022-12-11T13:32:21.755Z,4.75
2022-12-11T13:34:57.233Z,4.07
2022-12-11T13:37:34.762Z,4.50
2022-12-11T13:40:05.593Z,4.15
2022-12-11T13:42:36.723Z,4.70
2022-12-11T13:45:21.771Z,4.30
2022-12-11T13:50:25.575Z,3.80
2022-12-11T13:52:57.603Z,3.78
2022-12-11T13:55:33.648Z,4.40
2022-12-11T13:58:00.764Z,3.90
2022-12-11T14:00:33.384Z,3.40
2022-12-11T14:03:05.371Z,3.80
2022-12-11T14:05:33.679Z,4.13
2022-12-11T14:08:07.292Z,4.28
2022-12-11T14:10:34.270Z,4.80
2022-12-11T14:13:05.188Z,4.88
2022-12-11T14:15:35.226Z,5.05
2022-12-11T14:18:03.306Z,3.92
2022-12-11T14:20:33.216Z,4.07
2022-12-11T14:23:08.367Z,4.32
2022-12-11T14:25:35.109Z,4.00
2022-12-11T14:28:01.936Z,3.83
2022-12-11T14:30:33.033Z,3.10
2022-12-11T14:33:02.687Z,3.70
2022-12-11T14:35:39.139Z,3.63
2022-12-11T14:38:16.449Z,3.50
2022-12-11T14:40:48.787Z,3.50
2022-12-11T14:43:43.797Z,3.20
2022-12-11T14:46:24.111Z,3.25
2022-12-11T14:49:01.196Z,3.65
2022-12-11T14:51:32.801Z,2.80
2022-12-11T14:54:00.522Z,3.13
2022-12-11T14:56:30.338Z,2.92
2022-12-11T14:59:00.697Z,2.90
2022-12-11T15:01:36.666Z,2.72
2022-12-11T15:04:19.302Z,2.92
2022-12-11T15:06:48.490Z,2.90
2022-12-11T15:09:26.282Z,2.90
2022-12-11T15:11:55.056Z,2.40
2022-12-11T15:14:24.047Z,3.63
2022-12-11T15:16:54.097Z,3.30
2022-12-11T15:19:31.396Z,3.03
2022-12-11T15:22:04.632Z,2.88
2022-12-11T15:24:41.604Z,2.50
2022-12-11T15:27:39.751Z,2.95
2022-12-11T15:30:29.099Z,2.40
2022-12-11T15:33:34.569Z,2.70
2022-12-11T15:38:37.586Z,2.65
2022-12-11T15:41:04.615Z,3.15
2022-12-11T15:43:36.302Z,3.38
2022-12-11T15:46:09.629Z,2.85
2022-12-11T15:48:36.453Z,3.58
2022-12-11T15:51:03.731Z,2.78
2022-12-11T15:53:30.721Z,2.58
2022-12-11T15:55:58.905Z,2.72
2022-12-11T15:58:27.251Z,2.40
2022-12-11T16:00:54.850Z,2.90
2022-12-11T16:03:22.704Z,2.35
2022-12-11T16:05:51.657Z,2.13
2022-12-11T16:08:21.671Z,2.50
2022-12-11T16:10:55.024Z,2.47
2022-12-11T16:13:22.406Z,2.38
2022-12-11T16:15:51.302Z,2.67
2022-12-11T16:18:21.676Z,2.75
2022-12-11T16:20:49.721Z,2.60
2022-12-11T16:23:17.343Z,2.83
2022-12-11T16:25:47.121Z,2.80
2022-12-11T16:28:17.139Z,2.67
2022-12-11T16:30:45.249Z,2.75
2022-12-11T16:33:13.357Z,2.35
2022-12-11T16:35:42.643Z,3.03
2022-12-11T16:38:10.761Z,3.70
2022-12-11T16:40:38.062Z,2.85
2022-12-11T16:43:05.605Z,3.08
2022-12-11T16:45:34.788Z,3.00
2022-12-11T16:48:05.184Z,3.08
2022-12-11T16:50:32.412Z,2.88
2022-12-11T16:52:59.299Z,2.70
2022-12-11T16:55:26.206Z,3.25
2022-12-11T16:57:53.088Z,3.20
2022-12-11T17:00:20.556Z,3.42
2022-12-11T17:02:58.328Z,2.90
2022-12-11T17:05:25.187Z,2.63
2022-12-11T17:07:51.961Z,2.40
2022-12-11T17:10:18.969Z,3.13
2022-12-11T17:12:45.762Z,3.00
2022-12-11T17:15:12.744Z,3.03
2022-12-11T17:17:39.717Z,2.28
2022-12-11T17:20:07.096Z,3.03
2022-12-11T17:22:34.937Z,3.20
2022-12-11T17:25:02.012Z,3.38
2022-12-11T17:27:28.762Z,3.20
2022-12-11T17:29:55.711Z,3.58
2022-12-11T17:32:29.138Z,3.80
2022-12-11T17:34:55.941Z,3.17
2022-12-11T17:37:22.759Z,2.95
2022-12-11T17:39:49.496Z,2.97
2022-12-11T17:42:16.312Z,4.40
2022-12-11T17:44:45.324Z,4.60
2022-12-11T17:47:12.244Z,4.13
2022-12-11T17:49:40.447Z,4.05
2022-12-11T17:52:07.939Z,4.55
2022-12-11T17:54:35.016Z,4.55
2022-12-11T17:57:02.186Z,3.95
2022-12-11T17:59:29.134Z,4.80
2022-12-11T18:01:56.019Z,4.78
2022-12-11T18:04:22.895Z,4.68
2022-12-11T18:06:49.666Z,4.63
2022-12-11T18:09:16.486Z,4.95
2022-12-11T18:11:43.239Z,4.75
2022-12-11T18:14:15.224Z,4.68
2022-12-11T18:16:44.087Z,4.87
2022-12-11T18:19:11.163Z,5.63
2022-12-11T18:21:48.362Z,5.30
2022-12-11T18:24:29.197Z,4.72
2022-12-11T18:26:57.798Z,5.38
2022-12-11T18:29:24.950Z,5.57
2022-12-11T18:31:51.741Z,4.60
2022-12-11T18:34:19.322Z,4.68
2022-12-11T18:36:46.417Z,3.80
2022-12-11T18:39:13.535Z,4.40
2022-12-11T18:41:40.368Z,4.63
2022-12-11T18:44:09.993Z,5.30
2022-12-11T18:46:39.539Z,4.88
2022-12-11T18:49:06.832Z,4.28
2022-12-11T18:51:34.125Z,3.97
2022-12-11T18:54:01.087Z,3.55
2022-12-11T18:56:27.904Z,4.00
2022-12-11T18:58:54.784Z,3.90
2022-12-11T19:01:24.895Z,4.05
2022-12-11T19:03:58.864Z,5.05
2022-12-11T19:06:30.401Z,7.10
2022-12-11T19:08:58.201Z,7.80
2022-12-11T19:11:27.479Z,6.47
2022-12-11T19:13:56.650Z,5.97
2022-12-11T19:16:27.082Z,5.03
2022-12-11T19:18:54.049Z,5.18
2022-12-11T19:21:21.407Z,4.88
2022-12-11T19:23:48.326Z,4.10
2022-12-11T19:26:18.113Z,3.95
2022-12-11T19:28:57.257Z,3.88
2022-12-11T19:31:24.234Z,3.65
2022-12-11T19:33:51.145Z,3.90
2022-12-11T19:36:21.010Z,4.22
2022-12-11T19:38:47.945Z,3.65
2022-12-11T19:41:19.455Z,4.40
2022-12-11T19:43:46.727Z,3.63
2022-12-11T19:46:14.865Z,3.88
2022-12-11T19:48:42.569Z,3.88
2022-12-11T19:51:13.150Z,3.67
2022-12-11T19:53:40.725Z,3.67
2022-12-11T19:56:09.947Z,3.72
2022-12-11T19:58:36.880Z,3.83
2022-12-11T20:01:04.587Z,3.58
2022-12-11T20:03:31.773Z,4.20
2022-12-11T20:06:04.258Z,3.80
2022-12-11T20:08:47.218Z,4.47
2022-12-11T20:11:18.603Z,4.65
2022-12-11T20:13:46.989Z,4.43
2022-12-11T20:16:14.779Z,4.47
2022-12-11T20:18:43.046Z,4.25
2022-12-11T20:21:13.702Z,4.32
2022-12-11T20:23:42.014Z,4.50
2022-12-11T20:26:11.508Z,3.67
2022-12-11T20:28:38.494Z,3.40
2022-12-11T20:31:25.447Z,4.05
2022-12-11T20:33:53.582Z,3.42
2022-12-11T20:36:23.024Z,4.13
2022-12-11T20:38:50.449Z,4.25
2022-12-11T20:41:20.271Z,4.03
2022-12-11T20:44:00.399Z,4.68
2022-12-11T20:46:27.733Z,5.80
2022-12-11T20:48:58.415Z,4.63
2022-12-11T20:51:26.623Z,4.55
2022-12-11T20:54:01.268Z,4.85
2022-12-11T20:56:33.075Z,4.82
2022-12-11T20:59:00.634Z,4.30
2022-12-11T21:01:29.951Z,4.72
2022-12-11T21:03:56.995Z,4.95
2022-12-11T21:06:35.383Z,5.13
2022-12-11T21:09:05.572Z,4.90
2022-12-11T21:11:32.612Z,5.30
2022-12-11T21:13:59.474Z,5.28
2022-12-11T21:16:26.271Z,5.10
2022-12-11T21:18:54.441Z,4.68
2022-12-11T21:21:21.393Z,4.60
2022-12-11T21:23:48.569Z,4.60
2022-12-11T21:26:15.492Z,4.57
2022-12-11T21:28:42.407Z,4.70
2022-12-11T21:31:13.560Z,4.03
2022-12-11T21:33:40.561Z,3.78
2022-12-11T21:36:10.869Z,4.43
2022-12-11T21:38:38.916Z,4.28
2022-12-11T21:41:13.914Z,4.43
2022-12-11T21:44:03.261Z,4.63
2022-12-11T21:46:35.351Z,5.37
2022-12-11T21:49:02.146Z,5.75
2022-12-11T21:51:36.835Z,5.55
2022-12-11T21:54:06.716Z,4.50
2022-12-11T21:56:34.244Z,4.68
2022-12-11T21:59:04.209Z,4.45
2022-12-11T22:01:40.935Z,4.95
2022-12-11T22:04:16.781Z,4.15
2022-12-11T22:06:47.079Z,4.13
2022-12-11T22:09:15.909Z,4.28
2022-12-11T22:11:45.029Z,4.15
2022-12-11T22:14:29.301Z,4.22
2022-12-11T22:16:58.031Z,3.70
2022-12-11T22:19:35.505Z,3.55
2022-12-11T22:22:14.280Z,3.55
2022-12-11T22:24:41.624Z,3.28
2022-12-11T22:27:19.126Z,2.70
2022-12-11T22:29:56.452Z,2.95
2022-12-11T22:32:23.274Z,2.80
2022-12-11T22:34:50.073Z,2.83
2022-12-11T22:37:16.873Z,2.90
2022-12-11T22:39:43.657Z,3.70
2022-12-11T22:42:10.506Z,3.05
2022-12-11T22:44:37.232Z,3.20
2022-12-11T22:47:03.949Z,2.58
2022-12-11T22:49:30.802Z,2.50
2022-12-11T22:51:57.713Z,2.22
2022-12-11T22:54:24.827Z,2.45
2022-12-11T22:56:51.586Z,2.47
2022-12-11T22:59:18.449Z,2.13
2022-12-11T23:01:45.432Z,2.35
2022-12-11T23:04:13.431Z,2.15
2022-12-11T23:06:40.876Z,2.95
2022-12-11T23:09:07.838Z,2.90
2022-12-11T23:11:38.098Z,2.90
2022-12-11T23:14:07.695Z,2.35
2022-12-11T23:16:34.811Z,2.20
2022-12-11T23:19:02.155Z,2.42
2022-12-11T23:21:29.516Z,3.20
2022-12-11T23:23:57.008Z,3.20
2022-12-11T23:26:24.449Z,4.28
2022-12-11T23:28:51.181Z,6.15
2022-12-11T23:31:18.425Z,6.10
2022-12-11T23:33:45.460Z,5.32
2022-12-11T23:36:12.566Z,4.45
2022-12-11T23:38:52.607Z,3.50
2022-12-11T23:41:21.538Z,3.22
2022-12-11T23:43:48.326Z,2.70
2022-12-11T23:46:18.218Z,2.88
2022-12-11T23:48:45.194Z,2.28
2022-12-11T23:51:16.701Z,2.58
2022-12-11T23:53:44.132Z,2.67
2022-12-11T23:56:17.315Z,2.33
2022-12-11T23:58:45.455Z,2.28
